createdAt,value
2023-02-15T00:01:34.201Z,99.9
2023-02-15T00:03:37.218Z,99.9
2023-02-15T00:05:40.232Z,99.9
2023-02-15T00:07:43.230Z,99.9
2023-02-15T00:09:46.229Z,99.9
2023-02-15T00:11:49.220Z,99.9
2023-02-15T00:13:55.451Z,99.9
2023-02-15T00:15:58.670Z,99.9
2023-02-15T00:19:04.558Z,99.9
2023-02-15T00:21:07.580Z,99.9
2023-02-15T00:23:10.578Z,99.9
2023-02-15T00:25:13.580Z,99.9
2023-02-15T00:27:19.796Z,99.9
2023-02-15T00:31:25.887Z,99.9
2023-02-15T00:33:28.794Z,99.9
2023-02-15T00:35:31.785Z,99.9
2023-02-15T00:37:34.779Z,99.9
2023-02-15T00:39:37.802Z,99.9
2023-02-15T00:41:44.068Z,99.9
2023-02-15T00:49:55.999Z,99.9
2023-02-15T00:54:01.968Z,99.9
2023-02-15T00:56:08.201Z,99.9
2023-02-15T00:58:11.171Z,99.9
2023-02-15T01:00:14.157Z,99.9
2023-02-15T01:02:17.154Z,99.9
2023-02-15T01:04:20.184Z,99.9
2023-02-15T01:06:23.134Z,99.9
2023-02-15T01:08:26.126Z,99.9
2023-02-15T01:12:35.339Z,99.9
2023-02-15T01:14:38.301Z,99.9
2023-02-15T01:17:00.167Z,99.9
2023-02-15T01:19:03.154Z,99.9
2023-02-15T01:21:06.124Z,99.9
2023-02-15T01:25:15.306Z,99.9
2023-02-15T01:27:18.282Z,99.9
2023-02-15T01:29:21.289Z,99.9
2023-02-15T01:31:24.378Z,99.9
2023-02-15T01:33:27.260Z,99.9
2023-02-15T01:35:30.296Z,99.9
2023-02-15T01:37:36.440Z,99.9
2023-02-15T01:39:39.445Z,99.9
2023-02-15T01:41:42.401Z,99.9
2023-02-15T01:43:45.421Z,99.9
2023-02-15T01:52:00.587Z,99.9
2023-02-15T01:54:03.574Z,99.9
2023-02-15T01:56:06.568Z,99.9
2023-02-15T01:58:09.547Z,99.9
2023-02-15T02:00:12.522Z,99.9
2023-02-15T02:02:15.682Z,99.9
2023-02-15T02:04:18.479Z,99.9
2023-02-15T02:06:26.202Z,99.9
2023-02-15T02:08:27.715Z,99.9
2023-02-15T02:10:32.238Z,99.9
2023-02-15T02:11:35.298Z,99.9
2023-02-15T02:13:38.247Z,99.9
2023-02-15T02:15:41.293Z,99.9
2023-02-15T02:17:44.217Z,99.9
2023-02-15T02:21:53.430Z,99.9
2023-02-15T02:23:56.396Z,99.9
2023-02-15T02:25:59.756Z,99.9
2023-02-15T02:28:02.348Z,99.9
2023-02-15T02:30:05.348Z,99.9
2023-02-15T02:32:08.290Z,99.9
2023-02-15T02:34:14.475Z,99.9
2023-02-15T02:36:17.444Z,99.9
2023-02-15T02:38:20.403Z,99.9
2023-02-15T02:42:26.357Z,99.9
2023-02-15T02:48:38.459Z,99.9
2023-02-15T02:50:41.448Z,99.9
2023-02-15T02:52:44.413Z,99.9
2023-02-15T02:54:47.377Z,99.9
2023-02-15T03:00:56.264Z,99.9
2023-02-15T03:07:08.372Z,99.9
2023-02-15T03:10:14.432Z,99.9
2023-02-15T03:12:17.401Z,99.9
2023-02-15T03:14:20.342Z,99.9
2023-02-15T03:16:26.646Z,99.9
2023-02-15T03:18:29.626Z,99.9
2023-02-15T03:20:32.448Z,99.9
2023-02-15T03:22:35.404Z,99.9
2023-02-15T03:24:38.335Z,99.9
2023-02-15T03:26:41.356Z,99.9
2023-02-15T03:28:44.289Z,99.9
2023-02-15T03:30:50.463Z,99.9
2023-02-15T03:32:53.415Z,99.9
2023-02-15T03:34:56.379Z,99.9
2023-02-15T03:36:59.327Z,99.9
2023-02-15T03:39:02.297Z,99.9
2023-02-15T03:41:05.231Z,99.9
2023-02-15T03:43:08.171Z,99.9
2023-02-15T03:45:14.353Z,99.9
2023-02-15T03:47:17.300Z,99.9
2023-02-15T03:49:20.249Z,99.9
2023-02-15T03:53:26.150Z,99.9
2023-02-15T04:03:44.157Z,99.9
2023-02-15T04:04:47.219Z,99.9
2023-02-15T04:06:50.032Z,99.9
2023-02-15T04:08:52.970Z,99.9
2023-02-15T04:10:55.922Z,99.9
2023-02-15T04:15:05.049Z,99.9
2023-02-15T04:17:08.013Z,99.9
2023-02-15T04:23:16.830Z,99.9
2023-02-15T04:27:25.930Z,99.9
2023-02-15T04:39:43.593Z,99.9
2023-02-15T04:43:52.699Z,99.9
2023-02-15T04:45:55.718Z,99.9
2023-02-15T04:47:58.560Z,99.9
2023-02-15T04:52:04.455Z,99.9
2023-02-15T04:54:07.389Z,99.9
2023-02-15T04:56:13.541Z,99.9
2023-02-15T04:58:16.510Z,99.9
2023-02-15T05:02:49.409Z,99.9
2023-02-15T05:04:52.307Z,99.9
2023-02-15T05:06:55.246Z,99.9
2023-02-15T05:11:04.341Z,99.9
2023-02-15T05:13:07.272Z,99.9
2023-02-15T05:15:10.186Z,99.9
2023-02-15T05:17:13.130Z,99.9
2023-02-15T05:19:16.075Z,99.9
2023-02-15T05:21:19.201Z,99.9
2023-02-15T05:23:25.170Z,99.9
2023-02-15T05:29:33.980Z,99.9
2023-02-15T05:41:54.810Z,99.9
2023-02-15T05:43:57.752Z,99.9
2023-02-15T05:46:00.967Z,99.9
2023-02-15T05:48:03.587Z,99.9
2023-02-15T05:50:06.532Z,99.9
2023-02-15T05:52:12.667Z,99.9
2023-02-15T05:54:15.598Z,99.9
2023-02-15T05:56:18.532Z,99.9
2023-02-15T05:59:24.574Z,99.9
2023-02-15T06:01:27.451Z,99.9
2023-02-15T06:11:45.306Z,99.9
2023-02-15T06:15:51.237Z,99.9
2023-02-15T06:17:54.091Z,99.9
2023-02-15T06:22:03.170Z,99.9
2023-02-15T06:24:06.104Z,99.9
2023-02-15T06:26:09.042Z,99.9
2023-02-15T06:28:11.967Z,99.9
2023-02-15T06:30:14.994Z,99.9
2023-02-15T06:32:17.829Z,99.9
2023-02-15T06:34:23.966Z,99.9
2023-02-15T06:36:26.886Z,99.9
2023-02-15T06:38:29.815Z,99.9
2023-02-15T06:42:35.673Z,99.9
2023-02-15T06:44:38.592Z,99.9
2023-02-15T06:48:47.676Z,99.9
2023-02-15T06:50:50.615Z,99.9
2023-02-15T06:52:54.443Z,99.9
2023-02-15T06:53:57.502Z,99.9
2023-02-15T06:58:03.366Z,99.9
2023-02-15T07:00:06.307Z,99.9
2023-02-15T07:02:12.419Z,99.9
2023-02-15T07:04:15.338Z,99.9
2023-02-15T07:06:18.277Z,99.9
2023-02-15T07:08:21.322Z,99.9
2023-02-15T07:10:24.108Z,99.9
2023-02-15T07:12:27.059Z,99.9
2023-02-15T07:14:29.978Z,99.9
2023-02-15T07:16:36.130Z,99.9
2023-02-15T07:18:39.081Z,99.9
2023-02-15T07:20:41.991Z,99.9
2023-02-15T07:22:44.911Z,99.9
2023-02-15T07:24:47.838Z,99.9
2023-02-15T07:26:50.762Z,99.9
2023-02-15T07:28:53.720Z,99.9
2023-02-15T07:30:59.894Z,99.9
2023-02-15T07:33:04.813Z,99.9
2023-02-15T07:35:05.724Z,99.9
2023-02-15T07:37:08.639Z,99.9
2023-02-15T07:39:11.621Z,99.9
2023-02-15T07:41:14.518Z,99.9
2023-02-15T07:43:17.429Z,99.9
2023-02-15T07:45:23.597Z,99.9
2023-02-15T07:47:26.529Z,99.9
2023-02-15T07:49:29.538Z,99.9
2023-02-15T07:50:32.527Z,99.9
2023-02-15T08:02:53.408Z,99.9
2023-02-15T08:04:57.945Z,99.9
2023-02-15T08:07:00.839Z,99.9
2023-02-15T08:09:03.798Z,99.9
2023-02-15T08:11:06.754Z,99.9
2023-02-15T08:13:12.916Z,99.9
2023-02-15T08:17:18.842Z,99.9
2023-02-15T08:25:30.719Z,99.9
2023-02-15T08:29:39.903Z,99.9
2023-02-15T08:31:43.024Z,99.9
2023-02-15T08:33:45.924Z,99.9
2023-02-15T08:35:48.860Z,99.9
2023-02-15T08:37:51.834Z,99.9
2023-02-15T08:39:54.858Z,99.9
2023-02-15T08:42:01.076Z,99.9
2023-02-15T08:44:04.069Z,99.9
2023-02-15T08:46:07.125Z,99.9
2023-02-15T08:50:39.934Z,99.9
2023-02-15T08:52:42.967Z,99.9
2023-02-15T08:54:49.177Z,99.9
2023-02-15T08:56:52.269Z,99.9
2023-02-15T09:05:04.668Z,99.9
2023-02-15T09:11:17.084Z,99.9
2023-02-15T09:13:20.174Z,99.9
2023-02-15T09:15:23.312Z,99.9
2023-02-15T09:17:26.358Z,99.9
2023-02-15T09:19:29.457Z,99.9
2023-02-15T09:21:32.555Z,99.9
2023-02-15T09:23:38.836Z,99.9
2023-02-15T09:25:41.971Z,99.9
2023-02-15T09:27:45.048Z,99.9
2023-02-15T09:29:48.149Z,99.9
2023-02-15T09:31:51.508Z,99.9
2023-02-15T09:40:06.921Z,99.9
2023-02-15T09:42:10.050Z,99.9
2023-02-15T09:43:13.228Z,99.9
2023-02-15T09:45:18.489Z,99.9
2023-02-15T09:47:19.473Z,99.9
2023-02-15T09:49:22.566Z,99.9
2023-02-15T09:51:28.925Z,99.9
2023-02-15T09:53:32.048Z,99.9
2023-02-15T09:55:35.167Z,99.9
2023-02-15T09:57:38.303Z,99.9
2023-02-15T10:01:44.662Z,99.9
2023-02-15T10:05:54.015Z,99.9
2023-02-15T10:07:57.133Z,99.9
2023-02-15T10:10:00.280Z,99.9
2023-02-15T10:12:03.418Z,99.9
2023-02-15T10:14:06.517Z,99.9
2023-02-15T10:16:09.682Z,99.9
2023-02-15T10:18:12.793Z,99.9
2023-02-15T10:20:19.200Z,99.9
2023-02-15T10:22:22.270Z,99.9
2023-02-15T10:24:25.393Z,99.9
2023-02-15T10:26:28.519Z,99.9
2023-02-15T10:28:31.643Z,99.9
2023-02-15T10:38:50.563Z,99.9
2023-02-15T10:39:53.680Z,99.9
2023-02-15T10:41:56.842Z,99.9
2023-02-15T10:43:59.971Z,99.9
2023-02-15T10:46:03.156Z,99.9
2023-02-15T10:48:09.470Z,99.9
2023-02-15T10:50:12.605Z,99.9
2023-02-15T10:54:18.882Z,99.9
2023-02-15T10:56:22.028Z,99.9
2023-02-15T11:02:34.473Z,99.9
2023-02-15T11:04:37.545Z,99.9
2023-02-15T11:06:40.532Z,99.9
2023-02-15T11:08:43.568Z,90.5
2023-02-15T11:10:46.622Z,91.3
2023-02-15T11:12:49.666Z,91.4
2023-02-15T11:14:52.723Z,91.7
2023-02-15T11:16:58.860Z,82
2023-02-15T11:19:01.913Z,81.1
2023-02-15T11:25:11.006Z,90.3
2023-02-15T11:27:14.066Z,89.2
2023-02-15T11:31:23.370Z,76.7
2023-02-15T11:33:26.228Z,76.1
2023-02-15T11:35:29.246Z,75.2
2023-02-15T11:36:32.322Z,67.7
2023-02-15T11:38:35.359Z,67.2
2023-02-15T11:40:38.363Z,60.8
2023-02-15T11:42:41.389Z,52
2023-02-15T11:44:47.503Z,52.4
2023-02-15T11:46:50.642Z,52.3
2023-02-15T11:48:53.567Z,52.2
2023-02-15T11:52:59.591Z,59.4
2023-02-15T11:55:02.607Z,58.6
2023-02-15T11:57:05.598Z,56.4
2023-02-15T11:59:11.742Z,54.1
2023-02-15T12:01:14.750Z,54.6
2023-02-15T12:05:20.771Z,59.6
2023-02-15T12:07:23.788Z,69.5
2023-02-15T12:09:26.791Z,77.3
2023-02-15T12:11:29.793Z,76.1
2023-02-15T12:15:38.950Z,56.4
2023-02-15T12:19:44.990Z,55.6
2023-02-15T12:28:00.148Z,63.6
2023-02-15T12:34:30.035Z,60.7
2023-02-15T12:36:33.073Z,62.5
2023-02-15T12:38:36.061Z,56.1
2023-02-15T12:40:42.181Z,55.6
2023-02-15T12:42:45.199Z,57.3
2023-02-15T12:44:48.184Z,53.3
2023-02-15T12:46:51.252Z,53.3
2023-02-15T12:48:54.210Z,54.5
2023-02-15T12:53:00.235Z,62.3
2023-02-15T13:09:30.495Z,48.3
2023-02-15T13:15:39.517Z,45.4
2023-02-15T13:21:48.516Z,46.6
2023-02-15T13:29:03.663Z,54.4
2023-02-15T13:31:06.731Z,52.1
2023-02-15T13:33:09.675Z,50.6
2023-02-15T13:35:12.690Z,50.3
2023-02-15T13:37:18.808Z,55.7
2023-02-15T13:41:24.818Z,67.9
2023-02-15T13:43:27.821Z,69.1
2023-02-15T13:45:30.843Z,72.7
2023-02-15T13:47:33.828Z,73
2023-02-15T13:49:36.848Z,74.3
2023-02-15T13:51:42.938Z,80.3
2023-02-15T13:53:45.966Z,85.3
2023-02-15T13:55:48.965Z,84.7
2023-02-15T13:57:52.014Z,90.9
2023-02-15T13:59:56.585Z,91.7
2023-02-15T14:01:59.595Z,91.3
2023-02-15T14:04:02.644Z,80
2023-02-15T14:06:08.752Z,80.2
2023-02-15T14:08:11.770Z,80.2
2023-02-15T14:10:14.798Z,80.5
2023-02-15T14:12:17.828Z,88.4
2023-02-15T14:14:20.877Z,88.7
2023-02-15T14:16:23.949Z,90.2
2023-02-15T14:22:36.075Z,92.5
2023-02-15T14:24:39.120Z,96.3
2023-02-15T14:25:42.191Z,98.1
2023-02-15T14:27:45.229Z,98.4
2023-02-15T14:29:48.294Z,99
2023-02-15T14:31:51.447Z,99.3
2023-02-15T14:33:57.446Z,99.6
2023-02-15T14:36:00.492Z,99.9
2023-02-15T14:38:03.536Z,99.9
2023-02-15T14:40:06.569Z,99.9
2023-02-15T14:42:09.613Z,99.9
2023-02-15T14:44:12.644Z,99.9
2023-02-15T14:46:15.829Z,99.9
2023-02-15T14:48:21.884Z,99.9
2023-02-15T14:52:28.643Z,99.9
2023-02-15T14:54:31.245Z,99.9
2023-02-15T14:56:34.090Z,99.9
2023-02-15T15:00:40.181Z,99.9
2023-02-15T15:02:49.026Z,99.9
2023-02-15T15:04:49.402Z,99.9
2023-02-15T15:06:52.441Z,99.9
2023-02-15T15:08:55.498Z,99.9
2023-02-15T15:10:58.554Z,99.9
2023-02-15T15:17:10.829Z,99.9
2023-02-15T15:19:13.904Z,99.9
2023-02-15T15:22:20.003Z,99.9
2023-02-15T15:24:23.052Z,99.9
2023-02-15T15:26:26.123Z,99.9
2023-02-15T15:28:29.170Z,99.9
2023-02-15T15:32:38.381Z,99.9
2023-02-15T15:34:41.421Z,99.9
2023-02-15T15:40:50.599Z,99.9
2023-02-15T15:42:53.690Z,99.9
2023-02-15T15:44:59.821Z,99.9
2023-02-15T15:49:05.999Z,99.9
2023-02-15T15:51:08.991Z,99.9
2023-02-15T15:53:12.051Z,99.9
2023-02-15T16:03:30.394Z,99.9
2023-02-15T16:05:33.549Z,99.9
2023-02-15T16:07:36.716Z,99.9
2023-02-15T16:09:39.859Z,99.9
2023-02-15T16:11:43.012Z,99.9
2023-02-15T16:13:49.377Z,99.9
2023-02-15T16:15:52.542Z,99.9
2023-02-15T16:17:55.686Z,99.9
2023-02-15T16:20:25.421Z,99.9
2023-02-15T16:22:28.569Z,99.9
2023-02-15T16:24:31.726Z,99.9
2023-02-15T16:28:41.240Z,99.9
2023-02-15T16:30:44.481Z,99.9
2023-02-15T16:32:47.548Z,99.9
2023-02-15T16:34:50.714Z,99.9
2023-02-15T16:36:53.907Z,99.9
2023-02-15T16:38:57.046Z,99.9
2023-02-15T16:45:09.686Z,99.9
2023-02-15T16:47:12.847Z,99.9
2023-02-15T16:51:19.174Z,99.9
2023-02-15T16:53:22.314Z,99.9
2023-02-15T17:03:41.372Z,99.9
2023-02-15T17:07:47.524Z,99.9
2023-02-15T17:09:53.872Z,99.9
2023-02-15T17:11:56.939Z,99.9
2023-02-15T17:14:00.124Z,99.9
2023-02-15T17:15:03.292Z,99.9
2023-02-15T17:17:06.726Z,99.9
2023-02-15T17:19:09.853Z,99.9
2023-02-15T17:21:12.993Z,99.9
2023-02-15T17:23:19.365Z,99.9
2023-02-15T17:25:22.506Z,99.9
2023-02-15T17:27:25.625Z,99.9
2023-02-15T17:29:28.758Z,99.9
2023-02-15T17:31:31.979Z,99.9
2023-02-15T17:35:38.163Z,99.9
2023-02-15T17:37:44.505Z,99.9
2023-02-15T17:39:47.670Z,99.9
2023-02-15T17:41:50.790Z,99.9
2023-02-15T17:43:53.955Z,99.9
2023-02-15T17:48:00.246Z,99.9
2023-02-15T17:50:03.439Z,99.9
2023-02-15T17:52:09.711Z,99.9
2023-02-15T17:54:12.842Z,99.9
2023-02-15T17:56:15.986Z,99.9
2023-02-15T17:58:19.127Z,99.9
2023-02-15T18:00:22.264Z,99.9
2023-02-15T18:02:25.411Z,99.9
2023-02-15T18:04:28.548Z,99.9
2023-02-15T18:06:34.874Z,99.9
2023-02-15T18:08:38.040Z,99.9
2023-02-15T18:10:41.173Z,99.9
2023-02-15T18:11:44.331Z,99.9
2023-02-15T18:13:47.464Z,99.9
2023-02-15T18:15:50.624Z,99.9
2023-02-15T18:17:53.744Z,99.9
2023-02-15T18:20:00.113Z,99.9
2023-02-15T18:26:09.478Z,99.9
2023-02-15T18:28:12.588Z,99.9
2023-02-15T18:32:18.953Z,99.9
2023-02-15T18:34:25.207Z,99.9
2023-02-15T18:36:28.343Z,99.9
2023-02-15T18:38:31.483Z,99.9
2023-02-15T18:40:34.603Z,99.9
2023-02-15T18:46:43.994Z,99.9
2023-02-15T18:48:50.358Z,99.9
2023-02-15T18:50:53.469Z,99.9
2023-02-15T18:52:56.599Z,99.9
2023-02-15T18:54:59.754Z,99.9
2023-02-15T18:57:02.875Z,99.9
2023-02-15T18:59:06.004Z,99.9
2023-02-15T19:03:15.430Z,99.9
2023-02-15T19:05:18.587Z,99.9
2023-02-15T19:07:21.719Z,99.9
2023-02-15T19:08:24.866Z,99.9
2023-02-15T19:12:31.120Z,99.9
2023-02-15T19:14:34.257Z,99.9
2023-02-15T19:16:40.672Z,99.9
2023-02-15T19:22:49.934Z,99.9
2023-02-15T19:24:53.054Z,99.9
2023-02-15T19:33:08.779Z,99.9
2023-02-15T19:35:11.929Z,99.9
2023-02-15T19:41:21.306Z,99.9
2023-02-15T19:45:30.776Z,99.9
2023-02-15T19:47:33.889Z,99.9
2023-02-15T19:49:37.001Z,99.9
2023-02-15T19:51:40.137Z,99.9
2023-02-15T19:53:43.259Z,99.9
2023-02-15T19:55:47.966Z,99.9
2023-02-15T19:57:51.033Z,99.9
2023-02-15T19:59:57.349Z,99.9
2023-02-15T20:02:00.490Z,99.9
2023-02-15T20:04:03.609Z,99.9
2023-02-15T20:06:33.412Z,99.9
2023-02-15T20:12:47.510Z,99.9
2023-02-15T20:14:49.300Z,99.9
2023-02-15T20:18:55.571Z,99.9
2023-02-15T20:20:58.687Z,99.9
2023-02-15T20:25:04.936Z,99.9
2023-02-15T20:29:14.399Z,99.9
2023-02-15T20:31:17.652Z,99.9
2023-02-15T20:33:20.624Z,99.9
2023-02-15T20:35:23.756Z,99.9
2023-02-15T20:37:26.885Z,99.9
2023-02-15T20:39:29.980Z,99.9
2023-02-15T20:41:36.344Z,99.9
2023-02-15T20:43:39.450Z,99.9
2023-02-15T20:45:42.602Z,99.9
2023-02-15T20:47:45.713Z,99.9
2023-02-15T20:49:48.850Z,99.9
2023-02-15T20:51:51.932Z,99.9
2023-02-15T20:53:55.064Z,99.9
2023-02-15T20:56:01.551Z,99.9
2023-02-15T20:58:04.515Z,99.9
2023-02-15T21:00:07.679Z,99.9
2023-02-15T21:01:10.792Z,99.9
2023-02-15T21:05:17.061Z,99.9
2023-02-15T21:07:20.178Z,99.9
2023-02-15T21:09:26.516Z,99.9
2023-02-15T21:11:29.608Z,99.9
2023-02-15T21:13:32.730Z,99.9
2023-02-15T21:15:35.864Z,99.9
2023-02-15T21:19:42.129Z,99.9
2023-02-15T21:21:45.253Z,99.9
2023-02-15T21:23:51.565Z,99.9
2023-02-15T21:25:54.691Z,99.9
2023-02-15T21:27:57.820Z,99.9
2023-02-15T21:30:00.970Z,99.9
2023-02-15T21:32:04.264Z,99.9
2023-02-15T21:34:07.182Z,99.9
2023-02-15T21:38:16.670Z,99.9
2023-02-15T21:40:19.749Z,99.9
2023-02-15T21:44:26.007Z,99.9
2023-02-15T21:50:35.347Z,99.9
2023-02-15T21:52:41.710Z,99.9
2023-02-15T21:54:44.798Z,99.9
2023-02-15T21:56:47.929Z,99.9
2023-02-15T21:57:51.070Z,99.9
2023-02-15T21:59:54.188Z,99.9
2023-02-15T22:01:57.318Z,99.9
2023-02-15T22:04:00.475Z,99.9
2023-02-15T22:06:06.760Z,99.9
2023-02-15T22:08:09.894Z,99.9
2023-02-15T22:10:13.012Z,99.9
2023-02-15T22:12:16.145Z,99.9
2023-02-15T22:14:19.264Z,99.9
2023-02-15T22:16:22.423Z,99.9
2023-02-15T22:18:25.491Z,99.9
2023-02-15T22:22:34.947Z,99.9
2023-02-15T22:24:38.055Z,99.9
2023-02-15T22:26:41.174Z,99.9
2023-02-15T22:28:44.305Z,99.9
2023-02-15T22:30:47.415Z,99.9
2023-02-15T22:32:50.521Z,99.9
2023-02-15T22:34:56.832Z,99.9
2023-02-15T22:36:59.946Z,99.9
2023-02-15T22:39:03.052Z,99.9
2023-02-15T22:41:06.584Z,99.9
2023-02-15T22:43:09.277Z,99.9
2023-02-15T22:45:12.399Z,99.9
2023-02-15T22:47:15.506Z,99.9
2023-02-15T22:49:21.842Z,99.9
2023-02-15T22:51:24.950Z,99.9
2023-02-15T22:53:28.051Z,99.9
2023-02-15T23:02:46.882Z,99.9
2023-02-15T23:04:50.045Z,99.9
2023-02-15T23:06:53.117Z,99.9
2023-02-15T23:08:56.195Z,99.9
2023-02-15T23:10:59.315Z,99.9
2023-02-15T23:15:05.532Z,99.9
2023-02-15T23:17:11.864Z,99.9
2023-02-15T23:19:14.978Z,99.9
2023-02-15T23:21:18.063Z,99.9
2023-02-15T23:23:21.183Z,99.9
2023-02-15T23:25:24.291Z,99.9
2023-02-15T23:27:27.399Z,99.9
2023-02-15T23:29:30.497Z,99.9
2023-02-15T23:31:36.989Z,99.9
2023-02-15T23:33:39.925Z,99.9
2023-02-15T23:35:43.023Z,99.9
2023-02-15T23:37:46.104Z,99.9
2023-02-15T23:39:49.219Z,99.9
2023-02-15T23:41:52.338Z,99.9
2023-02-15T23:43:55.452Z,99.9
2023-02-15T23:48:04.854Z,99.9
2023-02-15T23:50:07.962Z,99.9
2023-02-15T23:52:31.899Z,99.9
2023-02-15T23:54:35.014Z,99.9
2023-02-15T23:56:38.166Z,99.9
2023-02-15T23:58:44.424Z,99.9
